Sudbury, Canada
Current Conditions -  °F | °C
As of 7:00 PM on Wednesday 22 Oct 2014 (Local Time) from CYSB Reporting Station
Clear Clear  
Wind Chill: 40°   Ceiling: Unl
Heat Index: 43°   Visibility: 15mi
Dew Point: 28°   Wind: 5mph
Humidity: 57%   Direction: 90°E
Pressure: 30.3"   Gusts: NA
Location:  46.49°N, 80.99°W
Report Text: CYSB 222300Z 09004KT 15SM SKC 06/M02 A3030 RMK SLP276
Loading
Personal Weather Stations






























Interactive Weather Map
Tropical Storm Tracking
New forecast layout! Learn more

10-Day Weather Forecast

Advertisements
Track Severe Weather on mobile